sensor_id;sensor_type;location;lat;lon;timestamp;P1;durP1;ratioP1;P2;durP2;ratioP2
42666;SDS011;28280;49.646;14.130;2023-05-24T00:04:45;0.90;;;0.80;;
42666;SDS011;28280;49.646;14.130;2023-05-24T00:15:09;1.10;;;0.80;;
42666;SDS011;28280;49.646;14.130;2023-05-24T00:25:30;1.67;;;1.00;;
42666;SDS011;28280;49.646;14.130;2023-05-24T00:35:52;0.70;;;0.70;;
42666;SDS011;28280;49.646;14.130;2023-05-24T00:46:17;1.10;;;0.80;;
42666;SDS011;28280;49.646;14.130;2023-05-24T00:56:43;1.63;;;0.80;;
42666;SDS011;28280;49.646;14.130;2023-05-24T01:07:20;1.00;;;0.77;;
42666;SDS011;28280;49.646;14.130;2023-05-24T01:17:59;2.60;;;0.73;;
42666;SDS011;28280;49.646;14.130;2023-05-24T01:28:25;1.33;;;0.90;;
42666;SDS011;28280;49.646;14.130;2023-05-24T01:38:47;1.40;;;0.90;;
42666;SDS011;28280;49.646;14.130;2023-05-24T01:49:22;1.83;;;0.90;;
42666;SDS011;28280;49.646;14.130;2023-05-24T01:59:50;1.40;;;1.00;;
42666;SDS011;28280;49.646;14.130;2023-05-24T02:10:12;2.63;;;1.30;;
42666;SDS011;28280;49.646;14.130;2023-05-24T02:20:34;2.10;;;1.00;;
42666;SDS011;28280;49.646;14.130;2023-05-24T02:30:58;1.55;;;1.10;;
42666;SDS011;28280;49.646;14.130;2023-05-24T02:41:19;1.90;;;1.30;;
42666;SDS011;28280;49.646;14.130;2023-05-24T02:51:42;1.95;;;1.15;;
42666;SDS011;28280;49.646;14.130;2023-05-24T03:02:03;1.60;;;1.13;;
42666;SDS011;28280;49.646;14.130;2023-05-24T03:12:25;2.75;;;1.27;;
42666;SDS011;28280;49.646;14.130;2023-05-24T03:22:47;2.30;;;1.60;;
42666;SDS011;28280;49.646;14.130;2023-05-24T03:33:08;2.55;;;1.42;;
42666;SDS011;28280;49.646;14.130;2023-05-24T03:43:29;2.08;;;1.30;;
42666;SDS011;28280;49.646;14.130;2023-05-24T04:04:18;1.67;;;1.40;;
42666;SDS011;28280;49.646;14.130;2023-05-24T04:14:39;2.65;;;1.60;;
42666;SDS011;28280;49.646;14.130;2023-05-24T04:25:02;3.15;;;1.50;;
42666;SDS011;28280;49.646;14.130;2023-05-24T04:35:24;3.92;;;1.70;;
42666;SDS011;28280;49.646;14.130;2023-05-24T04:45:46;2.38;;;1.40;;
42666;SDS011;28280;49.646;14.130;2023-05-24T04:56:08;3.05;;;1.75;;
42666;SDS011;28280;49.646;14.130;2023-05-24T05:06:29;2.42;;;1.42;;
42666;SDS011;28280;49.646;14.130;2023-05-24T05:16:51;3.97;;;1.70;;
42666;SDS011;28280;49.646;14.130;2023-05-24T05:27:12;4.72;;;1.85;;
42666;SDS011;28280;49.646;14.130;2023-05-24T05:37:34;4.53;;;1.55;;
42666;SDS011;28280;49.646;14.130;2023-05-24T05:47:55;5.00;;;2.20;;
42666;SDS011;28280;49.646;14.130;2023-05-24T05:58:17;5.03;;;1.70;;
42666;SDS011;28280;49.646;14.130;2023-05-24T06:08:38;6.20;;;2.35;;
42666;SDS011;28280;49.646;14.130;2023-05-24T06:19:00;3.13;;;1.92;;
42666;SDS011;28280;49.646;14.130;2023-05-24T06:39:47;6.05;;;2.67;;
42666;SDS011;28280;49.646;14.130;2023-05-24T06:50:08;3.42;;;2.08;;
42666;SDS011;28280;49.646;14.130;2023-05-24T07:00:30;5.68;;;2.15;;
42666;SDS011;28280;49.646;14.130;2023-05-24T07:10:52;5.97;;;2.58;;
42666;SDS011;28280;49.646;14.130;2023-05-24T07:21:14;6.80;;;2.70;;
42666;SDS011;28280;49.646;14.130;2023-05-24T07:31:35;5.20;;;2.30;;
42666;SDS011;28280;49.646;14.130;2023-05-24T07:41:57;5.55;;;2.47;;
42666;SDS011;28280;49.646;14.130;2023-05-24T07:52:19;5.03;;;2.35;;
42666;SDS011;28280;49.646;14.130;2023-05-24T08:02:41;9.75;;;2.90;;
42666;SDS011;28280;49.646;14.130;2023-05-24T08:13:04;4.32;;;2.80;;
42666;SDS011;28280;49.646;14.130;2023-05-24T08:23:27;5.97;;;3.10;;
42666;SDS011;28280;49.646;14.130;2023-05-24T08:33:49;5.00;;;3.05;;
42666;SDS011;28280;49.646;14.130;2023-05-24T08:44:10;6.10;;;3.10;;
42666;SDS011;28280;49.646;14.130;2023-05-24T08:54:36;6.95;;;2.97;;
42666;SDS011;28280;49.646;14.130;2023-05-24T09:04:57;6.97;;;3.50;;
42666;SDS011;28280;49.646;14.130;2023-05-24T09:15:19;7.40;;;3.47;;
42666;SDS011;28280;49.646;14.130;2023-05-24T09:25:44;5.60;;;3.70;;
42666;SDS011;28280;49.646;14.130;2023-05-24T09:36:06;6.88;;;4.25;;
42666;SDS011;28280;49.646;14.130;2023-05-24T09:46:28;5.30;;;3.85;;
42666;SDS011;28280;49.646;14.130;2023-05-24T09:56:50;7.72;;;3.88;;
42666;SDS011;28280;49.646;14.130;2023-05-24T10:07:11;8.23;;;4.57;;
42666;SDS011;28280;49.646;14.130;2023-05-24T10:17:32;8.18;;;3.92;;
42666;SDS011;28280;49.646;14.130;2023-05-24T10:28:03;6.40;;;3.88;;
42666;SDS011;28280;49.646;14.130;2023-05-24T10:38:27;5.25;;;3.70;;
42666;SDS011;28280;49.646;14.130;2023-05-24T10:48:58;8.00;;;4.15;;
42666;SDS011;28280;49.646;14.130;2023-05-24T10:59:31;9.25;;;4.35;;
42666;SDS011;28280;49.646;14.130;2023-05-24T11:09:58;8.63;;;4.15;;
42666;SDS011;28280;49.646;14.130;2023-05-24T11:20:26;6.35;;;3.88;;
42666;SDS011;28280;49.646;14.130;2023-05-24T11:30:48;5.82;;;3.90;;
42666;SDS011;28280;49.646;14.130;2023-05-24T11:41:10;6.30;;;4.60;;
42666;SDS011;28280;49.646;14.130;2023-05-24T11:51:32;6.05;;;4.00;;
42666;SDS011;28280;49.646;14.130;2023-05-24T12:01:56;8.95;;;4.22;;
42666;SDS011;28280;49.646;14.130;2023-05-24T12:12:21;11.48;;;4.90;;
42666;SDS011;28280;49.646;14.130;2023-05-24T12:22:54;6.07;;;3.80;;
42666;SDS011;28280;49.646;14.130;2023-05-24T12:33:17;6.63;;;3.90;;
42666;SDS011;28280;49.646;14.130;2023-05-24T12:43:39;4.93;;;3.67;;
42666;SDS011;28280;49.646;14.130;2023-05-24T12:54:00;7.63;;;3.55;;
42666;SDS011;28280;49.646;14.130;2023-05-24T13:04:24;7.63;;;3.67;;
42666;SDS011;28280;49.646;14.130;2023-05-24T13:14:51;5.40;;;3.17;;
42666;SDS011;28280;49.646;14.130;2023-05-24T13:25:15;7.03;;;3.50;;
42666;SDS011;28280;49.646;14.130;2023-05-24T13:35:36;4.75;;;3.13;;
42666;SDS011;28280;49.646;14.130;2023-05-24T13:45:58;4.55;;;3.20;;
42666;SDS011;28280;49.646;14.130;2023-05-24T13:56:19;5.82;;;3.03;;
42666;SDS011;28280;49.646;14.130;2023-05-24T14:06:42;5.85;;;3.15;;
42666;SDS011;28280;49.646;14.130;2023-05-24T14:17:03;5.28;;;3.40;;
42666;SDS011;28280;49.646;14.130;2023-05-24T14:27:24;4.80;;;3.10;;
42666;SDS011;28280;49.646;14.130;2023-05-24T14:37:46;5.65;;;3.08;;
42666;SDS011;28280;49.646;14.130;2023-05-24T14:48:08;5.10;;;2.88;;
42666;SDS011;28280;49.646;14.130;2023-05-24T14:58:33;6.65;;;2.70;;
42666;SDS011;28280;49.646;14.130;2023-05-24T15:08:55;6.50;;;3.22;;
42666;SDS011;28280;49.646;14.130;2023-05-24T15:19:16;4.97;;;3.03;;
42666;SDS011;28280;49.646;14.130;2023-05-24T15:29:38;4.78;;;3.05;;
42666;SDS011;28280;49.646;14.130;2023-05-24T15:39:59;5.28;;;2.72;;
42666;SDS011;28280;49.646;14.130;2023-05-24T15:50:20;8.88;;;3.15;;
42666;SDS011;28280;49.646;14.130;2023-05-24T16:00:55;4.07;;;2.83;;
42666;SDS011;28280;49.646;14.130;2023-05-24T16:11:17;4.22;;;2.85;;
42666;SDS011;28280;49.646;14.130;2023-05-24T16:21:41;4.23;;;2.97;;
42666;SDS011;28280;49.646;14.130;2023-05-24T16:32:02;7.85;;;3.03;;
42666;SDS011;28280;49.646;14.130;2023-05-24T16:42:24;4.70;;;3.00;;
42666;SDS011;28280;49.646;14.130;2023-05-24T16:52:46;5.75;;;3.15;;
42666;SDS011;28280;49.646;14.130;2023-05-24T17:03:08;6.15;;;3.40;;
42666;SDS011;28280;49.646;14.130;2023-05-24T17:13:30;6.90;;;3.72;;
42666;SDS011;28280;49.646;14.130;2023-05-24T17:23:52;6.63;;;3.28;;
42666;SDS011;28280;49.646;14.130;2023-05-24T17:34:14;7.00;;;3.08;;
42666;SDS011;28280;49.646;14.130;2023-05-24T17:44:36;4.50;;;2.97;;
42666;SDS011;28280;49.646;14.130;2023-05-24T17:54:57;6.72;;;3.22;;
42666;SDS011;28280;49.646;14.130;2023-05-24T18:05:19;6.13;;;2.72;;
42666;SDS011;28280;49.646;14.130;2023-05-24T18:15:41;6.50;;;3.10;;
42666;SDS011;28280;49.646;14.130;2023-05-24T18:26:07;5.35;;;2.63;;
42666;SDS011;28280;49.646;14.130;2023-05-24T18:36:30;7.63;;;3.08;;
42666;SDS011;28280;49.646;14.130;2023-05-24T18:46:52;8.30;;;3.42;;
42666;SDS011;28280;49.646;14.130;2023-05-24T18:57:16;6.63;;;2.88;;
42666;SDS011;28280;49.646;14.130;2023-05-24T19:07:37;6.20;;;2.90;;
42666;SDS011;28280;49.646;14.130;2023-05-24T19:17:59;6.75;;;2.67;;
42666;SDS011;28280;49.646;14.130;2023-05-24T19:28:21;4.07;;;2.38;;
42666;SDS011;28280;49.646;14.130;2023-05-24T19:38:43;7.82;;;2.67;;
42666;SDS011;28280;49.646;14.130;2023-05-24T19:49:04;3.20;;;2.25;;
42666;SDS011;28280;49.646;14.130;2023-05-24T19:59:26;6.78;;;2.60;;
42666;SDS011;28280;49.646;14.130;2023-05-24T20:09:48;4.13;;;2.25;;
42666;SDS011;28280;49.646;14.130;2023-05-24T20:20:10;6.40;;;2.70;;
42666;SDS011;28280;49.646;14.130;2023-05-24T20:30:31;5.75;;;2.85;;
42666;SDS011;28280;49.646;14.130;2023-05-24T20:40:53;5.00;;;2.45;;
42666;SDS011;28280;49.646;14.130;2023-05-24T20:51:15;5.60;;;3.00;;
42666;SDS011;28280;49.646;14.130;2023-05-24T21:01:36;4.65;;;2.40;;
42666;SDS011;28280;49.646;14.130;2023-05-24T21:11:58;3.63;;;2.40;;
42666;SDS011;28280;49.646;14.130;2023-05-24T21:22:19;6.75;;;2.55;;
42666;SDS011;28280;49.646;14.130;2023-05-24T21:32:41;6.63;;;2.60;;
42666;SDS011;28280;49.646;14.130;2023-05-24T21:43:02;6.40;;;2.90;;
42666;SDS011;28280;49.646;14.130;2023-05-24T21:53:24;5.63;;;2.53;;
42666;SDS011;28280;49.646;14.130;2023-05-24T22:03:46;3.95;;;2.38;;
42666;SDS011;28280;49.646;14.130;2023-05-24T22:14:07;5.22;;;2.65;;
42666;SDS011;28280;49.646;14.130;2023-05-24T22:24:28;7.15;;;2.70;;
42666;SDS011;28280;49.646;14.130;2023-05-24T22:34:50;5.78;;;2.90;;
42666;SDS011;28280;49.646;14.130;2023-05-24T22:45:12;4.70;;;2.50;;
42666;SDS011;28280;49.646;14.130;2023-05-24T22:55:34;5.22;;;3.17;;
42666;SDS011;28280;49.646;14.130;2023-05-24T23:05:55;6.55;;;3.13;;
42666;SDS011;28280;49.646;14.130;2023-05-24T23:16:24;4.55;;;2.63;;
42666;SDS011;28280;49.646;14.130;2023-05-24T23:26:48;6.00;;;2.57;;
42666;SDS011;28280;49.646;14.130;2023-05-24T23:37:10;7.70;;;2.90;;
42666;SDS011;28280;49.646;14.130;2023-05-24T23:47:31;5.18;;;3.15;;
42666;SDS011;28280;49.646;14.130;2023-05-24T23:57:53;5.10;;;2.95;;
